sensor_id;sensor_type;location;lat;lon;timestamp;P1;durP1;ratioP1;P2;durP2;ratioP2
70414;SDS011;57837;52.064;113.478;2024-03-06T00:01:13;94.60;;;42.27;;
70414;SDS011;57837;52.064;113.478;2024-03-06T00:04:16;223.30;;;79.43;;
70414;SDS011;57837;52.064;113.478;2024-03-06T00:07:21;91.50;;;48.25;;
70414;SDS011;57837;52.064;113.478;2024-03-06T00:10:25;91.30;;;36.63;;
70414;SDS011;57837;52.064;113.478;2024-03-06T00:13:29;62.55;;;33.63;;
70414;SDS011;57837;52.064;113.478;2024-03-06T00:16:32;63.30;;;35.35;;
70414;SDS011;57837;52.064;113.478;2024-03-06T00:19:37;37.67;;;25.13;;
70414;SDS011;57837;52.064;113.478;2024-03-06T00:22:41;83.40;;;36.78;;
70414;SDS011;57837;52.064;113.478;2024-03-06T00:25:45;99.57;;;44.30;;
70414;SDS011;57837;52.064;113.478;2024-03-06T00:28:49;172.25;;;62.90;;
70414;SDS011;57837;52.064;113.478;2024-03-06T00:31:53;84.93;;;37.77;;
70414;SDS011;57837;52.064;113.478;2024-03-06T00:34:56;75.00;;;36.05;;
70414;SDS011;57837;52.064;113.478;2024-03-06T00:38:00;90.18;;;39.00;;
70414;SDS011;57837;52.064;113.478;2024-03-06T00:41:05;162.87;;;69.43;;
70414;SDS011;57837;52.064;113.478;2024-03-06T00:44:10;84.60;;;39.13;;
70414;SDS011;57837;52.064;113.478;2024-03-06T00:47:13;95.72;;;41.17;;
70414;SDS011;57837;52.064;113.478;2024-03-06T00:50:18;59.17;;;23.90;;
70414;SDS011;57837;52.064;113.478;2024-03-06T00:53:24;106.18;;;47.22;;
70414;SDS011;57837;52.064;113.478;2024-03-06T00:56:28;101.93;;;37.85;;
70414;SDS011;57837;52.064;113.478;2024-03-06T00:59:31;95.43;;;41.47;;
70414;SDS011;57837;52.064;113.478;2024-03-06T01:02:35;55.73;;;27.80;;
70414;SDS011;57837;52.064;113.478;2024-03-06T01:05:42;119.60;;;41.55;;
70414;SDS011;57837;52.064;113.478;2024-03-06T01:08:46;149.38;;;59.22;;
70414;SDS011;57837;52.064;113.478;2024-03-06T01:11:50;102.30;;;39.87;;
70414;SDS011;57837;52.064;113.478;2024-03-06T01:14:53;85.40;;;31.13;;
70414;SDS011;57837;52.064;113.478;2024-03-06T01:17:56;139.15;;;51.33;;
70414;SDS011;57837;52.064;113.478;2024-03-06T01:21:00;147.15;;;52.50;;
70414;SDS011;57837;52.064;113.478;2024-03-06T01:24:03;119.68;;;40.95;;
70414;SDS011;57837;52.064;113.478;2024-03-06T01:27:08;96.28;;;34.63;;
70414;SDS011;57837;52.064;113.478;2024-03-06T01:30:11;50.45;;;21.90;;
70414;SDS011;57837;52.064;113.478;2024-03-06T01:33:15;60.67;;;23.40;;
70414;SDS011;57837;52.064;113.478;2024-03-06T01:36:19;67.80;;;25.77;;
70414;SDS011;57837;52.064;113.478;2024-03-06T01:39:23;62.75;;;24.23;;
70414;SDS011;57837;52.064;113.478;2024-03-06T01:42:26;50.37;;;20.33;;
70414;SDS011;57837;52.064;113.478;2024-03-06T01:45:31;62.10;;;22.90;;
70414;SDS011;57837;52.064;113.478;2024-03-06T01:48:35;73.80;;;26.98;;
70414;SDS011;57837;52.064;113.478;2024-03-06T01:51:42;91.63;;;31.48;;
70414;SDS011;57837;52.064;113.478;2024-03-06T01:54:50;80.18;;;29.05;;
70414;SDS011;57837;52.064;113.478;2024-03-06T01:57:55;83.68;;;33.53;;
70414;SDS011;57837;52.064;113.478;2024-03-06T02:01:00;86.32;;;32.67;;
70414;SDS011;57837;52.064;113.478;2024-03-06T02:04:05;76.30;;;32.53;;
70414;SDS011;57837;52.064;113.478;2024-03-06T02:07:12;91.35;;;32.55;;
70414;SDS011;57837;52.064;113.478;2024-03-06T02:10:16;82.57;;;33.00;;
70414;SDS011;57837;52.064;113.478;2024-03-06T02:13:21;80.03;;;31.87;;
70414;SDS011;57837;52.064;113.478;2024-03-06T02:16:24;80.97;;;33.92;;
70414;SDS011;57837;52.064;113.478;2024-03-06T02:19:41;85.10;;;32.58;;
70414;SDS011;57837;52.064;113.478;2024-03-06T02:22:46;70.57;;;29.95;;
70414;SDS011;57837;52.064;113.478;2024-03-06T02:25:50;89.88;;;30.38;;
70414;SDS011;57837;52.064;113.478;2024-03-06T02:28:54;90.75;;;31.95;;
70414;SDS011;57837;52.064;113.478;2024-03-06T02:31:59;77.75;;;27.58;;
70414;SDS011;57837;52.064;113.478;2024-03-06T02:35:05;78.90;;;26.80;;
70414;SDS011;57837;52.064;113.478;2024-03-06T02:38:11;71.13;;;26.38;;
70414;SDS011;57837;52.064;113.478;2024-03-06T02:41:16;60.78;;;24.05;;
70414;SDS011;57837;52.064;113.478;2024-03-06T02:44:20;65.55;;;25.00;;
70414;SDS011;57837;52.064;113.478;2024-03-06T02:47:25;56.78;;;21.08;;
70414;SDS011;57837;52.064;113.478;2024-03-06T02:50:28;51.75;;;20.05;;
70414;SDS011;57837;52.064;113.478;2024-03-06T02:53:32;47.55;;;20.10;;
70414;SDS011;57837;52.064;113.478;2024-03-06T02:56:35;45.27;;;16.47;;
70414;SDS011;57837;52.064;113.478;2024-03-06T02:59:39;53.50;;;18.40;;
70414;SDS011;57837;52.064;113.478;2024-03-06T03:02:43;28.25;;;13.15;;
70414;SDS011;57837;52.064;113.478;2024-03-06T03:05:47;30.55;;;13.32;;
70414;SDS011;57837;52.064;113.478;2024-03-06T03:08:51;46.63;;;14.90;;
70414;SDS011;57837;52.064;113.478;2024-03-06T03:11:55;24.83;;;9.82;;
70414;SDS011;57837;52.064;113.478;2024-03-06T03:14:59;26.95;;;9.35;;
70414;SDS011;57837;52.064;113.478;2024-03-06T03:18:03;44.60;;;14.10;;
70414;SDS011;57837;52.064;113.478;2024-03-06T03:21:08;29.10;;;11.63;;
70414;SDS011;57837;52.064;113.478;2024-03-06T03:24:13;31.10;;;13.30;;
70414;SDS011;57837;52.064;113.478;2024-03-06T03:27:17;39.97;;;14.20;;
70414;SDS011;57837;52.064;113.478;2024-03-06T03:30:21;39.08;;;15.52;;
70414;SDS011;57837;52.064;113.478;2024-03-06T03:33:25;40.53;;;14.98;;
70414;SDS011;57837;52.064;113.478;2024-03-06T03:36:28;45.23;;;12.43;;
70414;SDS011;57837;52.064;113.478;2024-03-06T03:39:32;25.10;;;8.88;;
70414;SDS011;57837;52.064;113.478;2024-03-06T03:42:37;26.58;;;10.63;;
70414;SDS011;57837;52.064;113.478;2024-03-06T03:45:41;24.88;;;9.27;;
70414;SDS011;57837;52.064;113.478;2024-03-06T03:48:45;25.63;;;7.85;;
70414;SDS011;57837;52.064;113.478;2024-03-06T03:51:49;23.23;;;9.23;;
70414;SDS011;57837;52.064;113.478;2024-03-06T03:54:53;26.52;;;9.43;;
70414;SDS011;57837;52.064;113.478;2024-03-06T03:57:57;23.65;;;8.82;;
70414;SDS011;57837;52.064;113.478;2024-03-06T04:01:01;27.75;;;9.23;;
70414;SDS011;57837;52.064;113.478;2024-03-06T04:04:05;30.48;;;10.35;;
70414;SDS011;57837;52.064;113.478;2024-03-06T04:07:11;33.57;;;9.83;;
70414;SDS011;57837;52.064;113.478;2024-03-06T04:10:15;32.83;;;11.23;;
70414;SDS011;57837;52.064;113.478;2024-03-06T04:13:19;28.52;;;10.65;;
70414;SDS011;57837;52.064;113.478;2024-03-06T04:16:24;14.07;;;5.93;;
70414;SDS011;57837;52.064;113.478;2024-03-06T04:19:28;21.43;;;7.67;;
70414;SDS011;57837;52.064;113.478;2024-03-06T04:22:31;24.73;;;8.43;;
70414;SDS011;57837;52.064;113.478;2024-03-06T04:25:35;15.90;;;7.18;;
70414;SDS011;57837;52.064;113.478;2024-03-06T04:28:40;18.98;;;7.63;;
70414;SDS011;57837;52.064;113.478;2024-03-06T04:31:44;16.25;;;6.43;;
70414;SDS011;57837;52.064;113.478;2024-03-06T04:34:48;16.70;;;7.80;;
70414;SDS011;57837;52.064;113.478;2024-03-06T04:37:52;19.98;;;7.57;;
70414;SDS011;57837;52.064;113.478;2024-03-06T04:40:55;11.40;;;4.85;;
70414;SDS011;57837;52.064;113.478;2024-03-06T04:43:59;13.40;;;5.00;;
70414;SDS011;57837;52.064;113.478;2024-03-06T04:47:04;7.88;;;3.88;;
70414;SDS011;57837;52.064;113.478;2024-03-06T04:50:08;12.83;;;3.70;;
70414;SDS011;57837;52.064;113.478;2024-03-06T04:53:12;9.93;;;4.28;;
70414;SDS011;57837;52.064;113.478;2024-03-06T04:56:16;15.75;;;3.63;;
70414;SDS011;57837;52.064;113.478;2024-03-06T04:59:21;8.73;;;3.88;;
70414;SDS011;57837;52.064;113.478;2024-03-06T05:02:25;9.60;;;3.20;;
70414;SDS011;57837;52.064;113.478;2024-03-06T05:05:29;7.97;;;3.43;;
70414;SDS011;57837;52.064;113.478;2024-03-06T05:08:49;8.70;;;3.88;;
70414;SDS011;57837;52.064;113.478;2024-03-06T05:12:09;9.20;;;3.22;;
70414;SDS011;57837;52.064;113.478;2024-03-06T05:15:30;25.08;;;8.07;;
70414;SDS011;57837;52.064;113.478;2024-03-06T05:18:49;17.52;;;6.55;;
70414;SDS011;57837;52.064;113.478;2024-03-06T05:22:10;11.63;;;4.33;;
70414;SDS011;57837;52.064;113.478;2024-03-06T05:25:32;12.10;;;4.30;;
70414;SDS011;57837;52.064;113.478;2024-03-06T05:28:53;10.93;;;3.90;;
70414;SDS011;57837;52.064;113.478;2024-03-06T05:32:13;8.05;;;3.28;;
70414;SDS011;57837;52.064;113.478;2024-03-06T05:35:33;9.60;;;3.72;;
70414;SDS011;57837;52.064;113.478;2024-03-06T05:38:53;11.33;;;3.93;;
70414;SDS011;57837;52.064;113.478;2024-03-06T05:42:13;8.85;;;3.90;;
70414;SDS011;57837;52.064;113.478;2024-03-06T05:45:33;11.15;;;4.13;;
70414;SDS011;57837;52.064;113.478;2024-03-06T05:48:54;12.18;;;4.22;;
70414;SDS011;57837;52.064;113.478;2024-03-06T05:52:14;7.95;;;3.95;;
70414;SDS011;57837;52.064;113.478;2024-03-06T05:55:34;11.37;;;3.73;;
70414;SDS011;57837;52.064;113.478;2024-03-06T05:58:54;9.10;;;4.07;;
70414;SDS011;57837;52.064;113.478;2024-03-06T06:01:58;12.65;;;4.05;;
70414;SDS011;57837;52.064;113.478;2024-03-06T06:05:01;10.02;;;3.28;;
70414;SDS011;57837;52.064;113.478;2024-03-06T06:08:24;8.35;;;3.35;;
70414;SDS011;57837;52.064;113.478;2024-03-06T06:11:28;14.47;;;4.10;;
70414;SDS011;57837;52.064;113.478;2024-03-06T06:14:32;10.15;;;3.72;;
70414;SDS011;57837;52.064;113.478;2024-03-06T06:17:35;13.45;;;3.95;;
70414;SDS011;57837;52.064;113.478;2024-03-06T06:20:41;11.07;;;3.92;;
70414;SDS011;57837;52.064;113.478;2024-03-06T06:23:45;15.05;;;4.03;;
70414;SDS011;57837;52.064;113.478;2024-03-06T06:26:48;11.17;;;3.93;;
70414;SDS011;57837;52.064;113.478;2024-03-06T06:29:52;8.05;;;3.20;;
70414;SDS011;57837;52.064;113.478;2024-03-06T06:32:58;7.63;;;3.17;;
70414;SDS011;57837;52.064;113.478;2024-03-06T06:36:02;5.93;;;2.53;;
70414;SDS011;57837;52.064;113.478;2024-03-06T06:39:05;3.85;;;1.73;;
70414;SDS011;57837;52.064;113.478;2024-03-06T06:42:08;5.43;;;2.67;;
70414;SDS011;57837;52.064;113.478;2024-03-06T06:45:13;6.90;;;2.10;;
70414;SDS011;57837;52.064;113.478;2024-03-06T06:48:16;7.45;;;2.20;;
70414;SDS011;57837;52.064;113.478;2024-03-06T06:51:19;8.82;;;2.53;;
70414;SDS011;57837;52.064;113.478;2024-03-06T06:54:23;8.73;;;2.92;;
70414;SDS011;57837;52.064;113.478;2024-03-06T06:57:26;7.03;;;2.27;;
70414;SDS011;57837;52.064;113.478;2024-03-06T07:00:29;10.15;;;2.67;;
70414;SDS011;57837;52.064;113.478;2024-03-06T07:03:33;6.85;;;2.88;;
70414;SDS011;57837;52.064;113.478;2024-03-06T07:06:37;5.93;;;2.78;;
70414;SDS011;57837;52.064;113.478;2024-03-06T07:09:40;11.10;;;3.03;;
70414;SDS011;57837;52.064;113.478;2024-03-06T07:12:44;11.07;;;3.13;;
70414;SDS011;57837;52.064;113.478;2024-03-06T07:15:47;8.52;;;3.33;;
70414;SDS011;57837;52.064;113.478;2024-03-06T07:18:50;11.13;;;4.18;;
70414;SDS011;57837;52.064;113.478;2024-03-06T07:21:53;10.13;;;3.45;;
70414;SDS011;57837;52.064;113.478;2024-03-06T07:24:57;10.73;;;3.45;;
70414;SDS011;57837;52.064;113.478;2024-03-06T07:28:00;4.53;;;2.00;;
70414;SDS011;57837;52.064;113.478;2024-03-06T07:31:05;5.93;;;2.88;;
70414;SDS011;57837;52.064;113.478;2024-03-06T07:34:08;9.43;;;2.92;;
70414;SDS011;57837;52.064;113.478;2024-03-06T07:37:12;12.23;;;2.65;;
70414;SDS011;57837;52.064;113.478;2024-03-06T07:40:17;5.43;;;2.60;;
70414;SDS011;57837;52.064;113.478;2024-03-06T07:43:20;10.00;;;3.20;;
70414;SDS011;57837;52.064;113.478;2024-03-06T07:46:23;8.07;;;3.70;;
70414;SDS011;57837;52.064;113.478;2024-03-06T07:49:27;5.75;;;2.08;;
70414;SDS011;57837;52.064;113.478;2024-03-06T07:52:30;6.32;;;1.90;;
70414;SDS011;57837;52.064;113.478;2024-03-06T07:55:34;4.80;;;3.03;;
70414;SDS011;57837;52.064;113.478;2024-03-06T07:58:37;6.07;;;2.57;;
70414;SDS011;57837;52.064;113.478;2024-03-06T08:01:41;5.18;;;2.33;;
70414;SDS011;57837;52.064;113.478;2024-03-06T08:04:45;7.72;;;3.50;;
70414;SDS011;57837;52.064;113.478;2024-03-06T08:07:50;12.85;;;4.05;;
70414;SDS011;57837;52.064;113.478;2024-03-06T08:10:53;10.63;;;3.93;;
70414;SDS011;57837;52.064;113.478;2024-03-06T08:13:57;8.82;;;4.20;;
70414;SDS011;57837;52.064;113.478;2024-03-06T08:17:01;14.25;;;4.85;;
70414;SDS011;57837;52.064;113.478;2024-03-06T08:20:07;9.77;;;4.20;;
70414;SDS011;57837;52.064;113.478;2024-03-06T08:23:11;9.50;;;3.40;;
70414;SDS011;57837;52.064;113.478;2024-03-06T08:26:14;10.93;;;3.97;;
70414;SDS011;57837;52.064;113.478;2024-03-06T08:29:18;8.45;;;4.28;;
70414;SDS011;57837;52.064;113.478;2024-03-06T08:32:22;17.77;;;5.13;;
70414;SDS011;57837;52.064;113.478;2024-03-06T08:35:25;8.98;;;3.63;;
70414;SDS011;57837;52.064;113.478;2024-03-06T08:38:28;11.00;;;4.30;;
70414;SDS011;57837;52.064;113.478;2024-03-06T08:41:32;9.05;;;3.97;;
70414;SDS011;57837;52.064;113.478;2024-03-06T08:44:36;9.30;;;4.07;;
70414;SDS011;57837;52.064;113.478;2024-03-06T08:47:40;13.60;;;5.60;;
70414;SDS011;57837;52.064;113.478;2024-03-06T08:50:44;12.75;;;5.45;;
70414;SDS011;57837;52.064;113.478;2024-03-06T08:53:48;10.38;;;4.45;;
70414;SDS011;57837;52.064;113.478;2024-03-06T08:56:52;11.57;;;4.75;;
70414;SDS011;57837;52.064;113.478;2024-03-06T09:00:00;12.27;;;4.95;;
70414;SDS011;57837;52.064;113.478;2024-03-06T09:03:03;12.47;;;5.23;;
70414;SDS011;57837;52.064;113.478;2024-03-06T09:06:07;11.95;;;4.68;;
70414;SDS011;57837;52.064;113.478;2024-03-06T09:09:10;11.35;;;4.82;;
70414;SDS011;57837;52.064;113.478;2024-03-06T09:12:17;11.52;;;4.03;;
70414;SDS011;57837;52.064;113.478;2024-03-06T09:15:22;7.57;;;3.43;;
70414;SDS011;57837;52.064;113.478;2024-03-06T09:18:26;5.78;;;3.28;;
70414;SDS011;57837;52.064;113.478;2024-03-06T09:21:30;6.55;;;2.70;;
70414;SDS011;57837;52.064;113.478;2024-03-06T09:24:34;10.80;;;3.55;;
70414;SDS011;57837;52.064;113.478;2024-03-06T09:27:39;10.80;;;4.40;;
70414;SDS011;57837;52.064;113.478;2024-03-06T09:30:43;17.02;;;3.97;;
70414;SDS011;57837;52.064;113.478;2024-03-06T09:33:49;17.88;;;5.88;;
70414;SDS011;57837;52.064;113.478;2024-03-06T09:36:53;15.60;;;5.63;;
70414;SDS011;57837;52.064;113.478;2024-03-06T09:39:57;11.87;;;5.43;;
70414;SDS011;57837;52.064;113.478;2024-03-06T09:43:03;22.08;;;7.38;;
70414;SDS011;57837;52.064;113.478;2024-03-06T09:46:07;17.85;;;7.00;;
70414;SDS011;57837;52.064;113.478;2024-03-06T09:49:12;21.02;;;8.35;;
70414;SDS011;57837;52.064;113.478;2024-03-06T09:52:17;19.33;;;7.90;;
70414;SDS011;57837;52.064;113.478;2024-03-06T09:55:21;22.33;;;8.10;;
70414;SDS011;57837;52.064;113.478;2024-03-06T09:58:24;18.98;;;6.35;;
70414;SDS011;57837;52.064;113.478;2024-03-06T10:01:28;12.65;;;5.30;;
70414;SDS011;57837;52.064;113.478;2024-03-06T10:04:32;14.57;;;5.70;;
70414;SDS011;57837;52.064;113.478;2024-03-06T10:07:36;19.85;;;6.43;;
70414;SDS011;57837;52.064;113.478;2024-03-06T10:10:40;18.75;;;6.28;;
70414;SDS011;57837;52.064;113.478;2024-03-06T10:13:45;15.10;;;4.90;;
70414;SDS011;57837;52.064;113.478;2024-03-06T10:19:56;19.48;;;7.10;;
70414;SDS011;57837;52.064;113.478;2024-03-06T10:23:03;18.52;;;8.43;;
70414;SDS011;57837;52.064;113.478;2024-03-06T10:26:07;26.13;;;8.55;;
70414;SDS011;57837;52.064;113.478;2024-03-06T10:29:14;23.88;;;10.65;;
70414;SDS011;57837;52.064;113.478;2024-03-06T10:32:19;24.45;;;10.80;;
70414;SDS011;57837;52.064;113.478;2024-03-06T10:35:24;38.90;;;12.20;;
70414;SDS011;57837;52.064;113.478;2024-03-06T10:38:29;33.37;;;12.43;;
70414;SDS011;57837;52.064;113.478;2024-03-06T10:41:36;34.13;;;13.68;;
70414;SDS011;57837;52.064;113.478;2024-03-06T10:44:52;36.50;;;15.00;;
70414;SDS011;57837;52.064;113.478;2024-03-06T10:47:58;38.27;;;14.70;;
70414;SDS011;57837;52.064;113.478;2024-03-06T10:51:06;54.28;;;17.35;;
70414;SDS011;57837;52.064;113.478;2024-03-06T10:54:12;54.55;;;19.33;;
70414;SDS011;57837;52.064;113.478;2024-03-06T10:57:17;58.13;;;20.70;;
70414;SDS011;57837;52.064;113.478;2024-03-06T11:00:24;59.90;;;22.25;;
70414;SDS011;57837;52.064;113.478;2024-03-06T11:03:29;42.60;;;17.98;;
70414;SDS011;57837;52.064;113.478;2024-03-06T11:06:34;50.65;;;19.73;;
70414;SDS011;57837;52.064;113.478;2024-03-06T11:09:37;34.73;;;14.47;;
70414;SDS011;57837;52.064;113.478;2024-03-06T11:12:42;43.30;;;16.58;;
70414;SDS011;57837;52.064;113.478;2024-03-06T11:15:51;58.30;;;21.45;;
70414;SDS011;57837;52.064;113.478;2024-03-06T11:19:05;61.90;;;22.40;;
70414;SDS011;57837;52.064;113.478;2024-03-06T11:22:11;62.05;;;22.35;;
70414;SDS011;57837;52.064;113.478;2024-03-06T11:28:58;84.35;;;31.80;;
70414;SDS011;57837;52.064;113.478;2024-03-06T11:32:05;80.18;;;29.35;;
70414;SDS011;57837;52.064;113.478;2024-03-06T11:35:11;72.05;;;27.85;;
70414;SDS011;57837;52.064;113.478;2024-03-06T11:38:18;60.75;;;21.92;;
70414;SDS011;57837;52.064;113.478;2024-03-06T11:41:25;42.13;;;16.93;;
70414;SDS011;57837;52.064;113.478;2024-03-06T11:44:31;60.10;;;21.65;;
70414;SDS011;57837;52.064;113.478;2024-03-06T11:47:54;80.22;;;26.45;;
70414;SDS011;57837;52.064;113.478;2024-03-06T11:50:59;80.57;;;27.67;;
70414;SDS011;57837;52.064;113.478;2024-03-06T11:54:04;76.75;;;30.48;;
70414;SDS011;57837;52.064;113.478;2024-03-06T11:57:08;50.15;;;22.73;;
70414;SDS011;57837;52.064;113.478;2024-03-06T12:00:13;51.40;;;19.65;;
70414;SDS011;57837;52.064;113.478;2024-03-06T12:03:17;48.65;;;18.42;;
70414;SDS011;57837;52.064;113.478;2024-03-06T12:06:21;72.47;;;29.65;;
70414;SDS011;57837;52.064;113.478;2024-03-06T12:09:26;69.53;;;26.45;;
70414;SDS011;57837;52.064;113.478;2024-03-06T12:12:30;56.13;;;22.37;;
70414;SDS011;57837;52.064;113.478;2024-03-06T12:15:34;53.25;;;21.15;;
70414;SDS011;57837;52.064;113.478;2024-03-06T12:18:39;53.28;;;22.45;;
70414;SDS011;57837;52.064;113.478;2024-03-06T12:21:42;71.00;;;25.80;;
70414;SDS011;57837;52.064;113.478;2024-03-06T12:24:59;61.28;;;23.30;;
70414;SDS011;57837;52.064;113.478;2024-03-06T12:28:06;62.80;;;26.13;;
70414;SDS011;57837;52.064;113.478;2024-03-06T12:31:14;73.22;;;30.50;;
70414;SDS011;57837;52.064;113.478;2024-03-06T12:34:18;69.63;;;30.02;;
70414;SDS011;57837;52.064;113.478;2024-03-06T12:37:28;77.70;;;30.02;;
70414;SDS011;57837;52.064;113.478;2024-03-06T12:40:35;89.40;;;31.80;;
70414;SDS011;57837;52.064;113.478;2024-03-06T12:43:40;122.47;;;41.87;;
70414;SDS011;57837;52.064;113.478;2024-03-06T12:46:43;125.45;;;41.50;;
70414;SDS011;57837;52.064;113.478;2024-03-06T12:49:47;120.32;;;38.97;;
70414;SDS011;57837;52.064;113.478;2024-03-06T12:52:52;124.17;;;45.37;;
70414;SDS011;57837;52.064;113.478;2024-03-06T12:55:55;86.22;;;33.80;;
70414;SDS011;57837;52.064;113.478;2024-03-06T12:58:58;98.72;;;33.53;;
70414;SDS011;57837;52.064;113.478;2024-03-06T13:02:02;108.63;;;36.83;;
70414;SDS011;57837;52.064;113.478;2024-03-06T13:05:06;138.80;;;43.03;;
70414;SDS011;57837;52.064;113.478;2024-03-06T13:08:10;129.70;;;44.05;;
70414;SDS011;57837;52.064;113.478;2024-03-06T13:11:17;118.65;;;43.47;;
70414;SDS011;57837;52.064;113.478;2024-03-06T13:14:22;118.43;;;43.57;;
70414;SDS011;57837;52.064;113.478;2024-03-06T13:17:25;92.53;;;30.25;;
70414;SDS011;57837;52.064;113.478;2024-03-06T13:20:32;102.97;;;36.60;;
70414;SDS011;57837;52.064;113.478;2024-03-06T13:23:37;94.47;;;32.07;;
70414;SDS011;57837;52.064;113.478;2024-03-06T13:26:41;73.15;;;28.23;;
70414;SDS011;57837;52.064;113.478;2024-03-06T13:29:45;49.10;;;19.65;;
70414;SDS011;57837;52.064;113.478;2024-03-06T13:32:49;63.65;;;22.52;;
70414;SDS011;57837;52.064;113.478;2024-03-06T13:35:53;134.63;;;36.50;;
70414;SDS011;57837;52.064;113.478;2024-03-06T13:38:58;99.85;;;35.28;;
70414;SDS011;57837;52.064;113.478;2024-03-06T13:42:02;77.93;;;26.60;;
70414;SDS011;57837;52.064;113.478;2024-03-06T13:45:07;80.93;;;28.23;;
70414;SDS011;57837;52.064;113.478;2024-03-06T13:48:17;85.30;;;26.98;;
70414;SDS011;57837;52.064;113.478;2024-03-06T13:51:23;50.05;;;20.88;;
70414;SDS011;57837;52.064;113.478;2024-03-06T13:54:26;44.53;;;15.10;;
70414;SDS011;57837;52.064;113.478;2024-03-06T13:57:31;31.45;;;15.80;;
70414;SDS011;57837;52.064;113.478;2024-03-06T14:00:38;32.05;;;13.57;;
70414;SDS011;57837;52.064;113.478;2024-03-06T14:03:42;68.85;;;27.00;;
70414;SDS011;57837;52.064;113.478;2024-03-06T14:06:46;41.40;;;18.77;;
70414;SDS011;57837;52.064;113.478;2024-03-06T14:09:52;47.92;;;17.73;;
70414;SDS011;57837;52.064;113.478;2024-03-06T14:12:55;39.30;;;15.65;;
70414;SDS011;57837;52.064;113.478;2024-03-06T14:16:00;79.80;;;32.17;;
70414;SDS011;57837;52.064;113.478;2024-03-06T14:19:04;40.28;;;14.35;;
70414;SDS011;57837;52.064;113.478;2024-03-06T14:22:08;43.72;;;15.75;;
70414;SDS011;57837;52.064;113.478;2024-03-06T14:25:13;67.33;;;21.83;;
70414;SDS011;57837;52.064;113.478;2024-03-06T14:28:18;42.83;;;15.57;;
70414;SDS011;57837;52.064;113.478;2024-03-06T14:31:21;58.67;;;19.77;;
70414;SDS011;57837;52.064;113.478;2024-03-06T14:34:26;27.83;;;11.90;;
70414;SDS011;57837;52.064;113.478;2024-03-06T14:37:29;19.02;;;8.48;;
70414;SDS011;57837;52.064;113.478;2024-03-06T14:40:34;22.88;;;8.70;;
70414;SDS011;57837;52.064;113.478;2024-03-06T14:43:39;17.10;;;8.00;;
70414;SDS011;57837;52.064;113.478;2024-03-06T14:46:43;13.73;;;5.47;;
70414;SDS011;57837;52.064;113.478;2024-03-06T14:49:47;13.98;;;6.57;;
70414;SDS011;57837;52.064;113.478;2024-03-06T14:52:51;15.38;;;5.32;;
70414;SDS011;57837;52.064;113.478;2024-03-06T14:55:54;18.17;;;6.53;;
70414;SDS011;57837;52.064;113.478;2024-03-06T14:58:59;12.57;;;4.90;;
70414;SDS011;57837;52.064;113.478;2024-03-06T15:02:02;13.13;;;5.43;;
70414;SDS011;57837;52.064;113.478;2024-03-06T15:05:07;37.80;;;13.50;;
70414;SDS011;57837;52.064;113.478;2024-03-06T15:08:11;32.35;;;11.27;;
70414;SDS011;57837;52.064;113.478;2024-03-06T15:11:15;38.35;;;13.63;;
70414;SDS011;57837;52.064;113.478;2024-03-06T15:14:19;66.00;;;19.83;;
70414;SDS011;57837;52.064;113.478;2024-03-06T15:17:24;79.33;;;26.30;;
70414;SDS011;57837;52.064;113.478;2024-03-06T15:20:31;114.88;;;33.70;;
70414;SDS011;57837;52.064;113.478;2024-03-06T15:23:37;115.65;;;33.45;;
70414;SDS011;57837;52.064;113.478;2024-03-06T15:26:42;97.40;;;33.70;;
70414;SDS011;57837;52.064;113.478;2024-03-06T15:29:46;76.85;;;25.98;;
70414;SDS011;57837;52.064;113.478;2024-03-06T15:32:50;81.25;;;24.23;;
70414;SDS011;57837;52.064;113.478;2024-03-06T15:35:54;95.03;;;33.13;;
70414;SDS011;57837;52.064;113.478;2024-03-06T15:38:59;48.30;;;14.82;;
70414;SDS011;57837;52.064;113.478;2024-03-06T15:42:03;23.55;;;9.93;;
70414;SDS011;57837;52.064;113.478;2024-03-06T15:45:07;55.28;;;15.70;;
70414;SDS011;57837;52.064;113.478;2024-03-06T15:48:11;29.00;;;9.93;;
70414;SDS011;57837;52.064;113.478;2024-03-06T15:51:17;25.92;;;10.57;;
70414;SDS011;57837;52.064;113.478;2024-03-06T15:54:21;35.03;;;13.50;;
70414;SDS011;57837;52.064;113.478;2024-03-06T15:57:25;40.83;;;14.37;;
70414;SDS011;57837;52.064;113.478;2024-03-06T16:00:29;47.08;;;16.00;;
70414;SDS011;57837;52.064;113.478;2024-03-06T16:03:33;35.45;;;13.35;;
70414;SDS011;57837;52.064;113.478;2024-03-06T16:06:36;34.65;;;11.77;;
70414;SDS011;57837;52.064;113.478;2024-03-06T16:09:42;26.80;;;11.00;;
70414;SDS011;57837;52.064;113.478;2024-03-06T16:12:45;31.05;;;12.18;;
70414;SDS011;57837;52.064;113.478;2024-03-06T16:15:49;38.13;;;14.05;;
70414;SDS011;57837;52.064;113.478;2024-03-06T16:18:52;46.47;;;16.93;;
70414;SDS011;57837;52.064;113.478;2024-03-06T16:21:56;63.10;;;24.02;;
70414;SDS011;57837;52.064;113.478;2024-03-06T16:25:00;37.95;;;15.55;;
70414;SDS011;57837;52.064;113.478;2024-03-06T16:28:03;28.17;;;11.40;;
70414;SDS011;57837;52.064;113.478;2024-03-06T16:31:06;30.27;;;12.60;;
70414;SDS011;57837;52.064;113.478;2024-03-06T16:34:10;20.83;;;8.77;;
70414;SDS011;57837;52.064;113.478;2024-03-06T16:37:14;20.58;;;9.45;;
70414;SDS011;57837;52.064;113.478;2024-03-06T16:40:17;25.42;;;10.23;;
70414;SDS011;57837;52.064;113.478;2024-03-06T16:43:20;18.70;;;7.63;;
70414;SDS011;57837;52.064;113.478;2024-03-06T16:46:23;20.05;;;7.20;;
70414;SDS011;57837;52.064;113.478;2024-03-06T16:49:30;21.23;;;8.80;;
70414;SDS011;57837;52.064;113.478;2024-03-06T16:52:34;14.20;;;5.78;;
70414;SDS011;57837;52.064;113.478;2024-03-06T16:55:38;14.32;;;7.20;;
70414;SDS011;57837;52.064;113.478;2024-03-06T16:58:42;39.13;;;11.47;;
70414;SDS011;57837;52.064;113.478;2024-03-06T17:01:47;32.63;;;12.20;;
70414;SDS011;57837;52.064;113.478;2024-03-06T17:04:50;24.73;;;9.00;;
70414;SDS011;57837;52.064;113.478;2024-03-06T17:07:55;14.25;;;6.50;;
70414;SDS011;57837;52.064;113.478;2024-03-06T17:10:59;22.33;;;8.90;;
70414;SDS011;57837;52.064;113.478;2024-03-06T17:14:02;30.98;;;11.05;;
70414;SDS011;57837;52.064;113.478;2024-03-06T17:17:06;49.22;;;17.30;;
70414;SDS011;57837;52.064;113.478;2024-03-06T17:20:10;29.73;;;14.60;;
70414;SDS011;57837;52.064;113.478;2024-03-06T17:23:14;48.20;;;13.98;;
70414;SDS011;57837;52.064;113.478;2024-03-06T17:26:17;35.38;;;13.13;;
70414;SDS011;57837;52.064;113.478;2024-03-06T17:29:20;52.50;;;16.10;;
70414;SDS011;57837;52.064;113.478;2024-03-06T17:32:24;36.53;;;14.32;;
70414;SDS011;57837;52.064;113.478;2024-03-06T17:35:28;42.25;;;13.13;;
70414;SDS011;57837;52.064;113.478;2024-03-06T17:38:31;55.45;;;18.45;;
70414;SDS011;57837;52.064;113.478;2024-03-06T17:41:36;38.63;;;11.88;;
70414;SDS011;57837;52.064;113.478;2024-03-06T17:44:39;39.85;;;15.52;;
70414;SDS011;57837;52.064;113.478;2024-03-06T17:47:42;58.60;;;18.48;;